createdAt,value
2018-07-20T00:02:37.392Z,98243.62
2018-07-20T00:05:12.975Z,98251.08
2018-07-20T00:07:49.219Z,98259.08
2018-07-20T00:10:25.671Z,98251.06
2018-07-20T00:13:05.449Z,98250.66
2018-07-20T00:15:41.540Z,98247.89
2018-07-20T00:18:22.145Z,98242.12
2018-07-20T00:20:57.179Z,98238.84
2018-07-20T00:23:36.120Z,98240.82
2018-07-20T00:26:14.325Z,98240.16
2018-07-20T00:28:53.319Z,98236.34
2018-07-20T00:31:29.362Z,98237.25
2018-07-20T00:34:04.002Z,98230.39
2018-07-20T00:36:43.573Z,98230.88
2018-07-20T00:39:21.250Z,98228.06
2018-07-20T00:41:58.353Z,98231.48
2018-07-20T00:44:35.136Z,98232.23
2018-07-20T00:47:11.173Z,98225.72
2018-07-20T00:49:49.505Z,98222.09
2018-07-20T00:52:32.995Z,98223.50
2018-07-20T00:55:15.805Z,98220.53
2018-07-20T00:57:51.416Z,98220.23
2018-07-20T01:00:26.235Z,98217.75
2018-07-20T01:03:02.741Z,98214.23
2018-07-20T01:05:41.629Z,98217.13
2018-07-20T01:08:19.426Z,98212.63
2018-07-20T01:10:52.827Z,98214.00
2018-07-20T01:13:34.203Z,98213.11
2018-07-20T01:16:36.804Z,98221.90
2018-07-20T01:19:15.098Z,98215.03
2018-07-20T01:21:50.950Z,98212.61
2018-07-20T01:24:25.859Z,98214.34
2018-07-20T01:27:03.385Z,98205.19
2018-07-20T01:29:44.258Z,98201.19
2018-07-20T01:32:22.546Z,98208.89
2018-07-20T01:35:17.216Z,98197.97
2018-07-20T01:40:42.744Z,98196.20
2018-07-20T01:43:21.608Z,98197.14
2018-07-20T01:46:02.482Z,98192.88
2018-07-20T01:48:42.199Z,98200.89
2018-07-20T01:51:18.017Z,98197.25
2018-07-20T01:53:53.830Z,98194.55
2018-07-20T01:56:43.610Z,98191.36
2018-07-20T02:02:00.951Z,98190.39
2018-07-20T02:04:36.126Z,98195.95
2018-07-20T02:07:24.053Z,98196.73
2018-07-20T02:10:02.779Z,98194.98
2018-07-20T02:12:37.706Z,98195.96
2018-07-20T02:15:12.539Z,98194.86
2018-07-20T02:17:46.464Z,98200.90
2018-07-20T02:20:24.012Z,98207.87
2018-07-20T02:23:02.937Z,98207.00
2018-07-20T02:25:46.160Z,98205.70
2018-07-20T02:28:22.324Z,98203.78
2018-07-20T02:31:11.234Z,98204.05
2018-07-20T02:33:46.116Z,98200.26
2018-07-20T02:36:26.199Z,98196.80
2018-07-20T02:39:01.815Z,98191.25
2018-07-20T02:44:22.458Z,98194.86
2018-07-20T02:47:04.543Z,98197.53
2018-07-20T02:49:41.169Z,98195.45
2018-07-20T02:52:18.610Z,98198.73
2018-07-20T02:54:55.913Z,98195.77
2018-07-20T02:57:30.682Z,98195.95
2018-07-20T03:00:08.585Z,98188.05
2018-07-20T03:02:42.775Z,98195.91
2018-07-20T03:05:11.601Z,98195.53
2018-07-20T03:07:40.171Z,98197.73
2018-07-20T03:10:08.804Z,98189.45
2018-07-20T03:12:37.445Z,98190.95
2018-07-20T03:15:06.247Z,98191.42
2018-07-20T03:17:34.835Z,98191.56
2018-07-20T03:20:03.462Z,98193.08
2018-07-20T03:22:32.056Z,98194.04
2018-07-20T03:25:00.778Z,98193.45
2018-07-20T03:27:29.454Z,98194.98
2018-07-20T03:29:58.286Z,98190.41
2018-07-20T03:32:26.961Z,98190.41
2018-07-20T03:34:55.566Z,98195.40
2018-07-20T03:37:24.314Z,98186.91
2018-07-20T03:39:52.824Z,98190.70
2018-07-20T03:42:21.565Z,98188.00
2018-07-20T03:44:50.199Z,98192.41
2018-07-20T03:47:18.772Z,98187.06
2018-07-20T03:49:47.530Z,98182.58
2018-07-20T03:52:16.218Z,98183.44
2018-07-20T03:54:45.092Z,98187.19
2018-07-20T03:57:14.176Z,98188.23
2018-07-20T03:59:42.767Z,98180.22
2018-07-20T04:02:11.414Z,98179.93
2018-07-20T04:04:39.997Z,98176.66
2018-07-20T04:07:08.697Z,98177.83
2018-07-20T04:09:37.288Z,98178.86
2018-07-20T04:12:05.803Z,98177.72
2018-07-20T04:14:34.333Z,98176.09
2018-07-20T04:17:02.844Z,98177.91
2018-07-20T04:19:31.519Z,98176.58
2018-07-20T04:22:00.110Z,98170.84
2018-07-20T04:24:28.677Z,98172.95
2018-07-20T04:26:57.229Z,98165.68
2018-07-20T04:29:25.877Z,98168.92
2018-07-20T04:31:54.646Z,98169.20
2018-07-20T04:34:23.375Z,98174.84
2018-07-20T04:36:52.013Z,98169.20
2018-07-20T04:39:20.606Z,98172.73
2018-07-20T04:41:49.273Z,98176.86
2018-07-20T04:44:19.029Z,98176.95
2018-07-20T04:46:47.894Z,98177.52
2018-07-20T04:49:16.554Z,98176.17
2018-07-20T04:51:45.176Z,98170.71
2018-07-20T04:54:13.847Z,98182.75
2018-07-20T04:56:42.382Z,98179.13
2018-07-20T04:59:11.048Z,98170.73
2018-07-20T05:01:39.732Z,98173.63
2018-07-20T05:04:08.423Z,98177.27
2018-07-20T05:06:37.200Z,98182.91
2018-07-20T05:09:09.040Z,98176.70
2018-07-20T05:11:38.213Z,98173.83
2018-07-20T05:14:07.071Z,98166.71
2018-07-20T05:16:35.803Z,98167.31
2018-07-20T05:19:04.526Z,98176.91
2018-07-20T05:21:33.231Z,98174.42
2018-07-20T05:24:02.528Z,98160.25
2018-07-20T05:26:34.977Z,98164.01
2018-07-20T05:29:04.126Z,98162.50
2018-07-20T05:31:32.957Z,98163.41
2018-07-20T05:34:01.759Z,98162.88
2018-07-20T05:36:30.503Z,98156.40
2018-07-20T05:38:59.275Z,98159.73
2018-07-20T05:41:28.099Z,98152.23
2018-07-20T05:43:56.759Z,98157.88
2018-07-20T05:46:25.416Z,98161.50
2018-07-20T05:48:54.182Z,98156.13
2018-07-20T05:51:22.872Z,98158.25
2018-07-20T05:53:51.984Z,98155.13
2018-07-20T05:56:21.142Z,98152.96
2018-07-20T05:58:50.034Z,98153.34
2018-07-20T06:01:18.697Z,98149.88
2018-07-20T06:03:47.378Z,98151.46
2018-07-20T06:06:16.040Z,98153.19
2018-07-20T06:08:45.039Z,98155.50
2018-07-20T06:11:13.645Z,98153.84
2018-07-20T06:13:42.300Z,98154.84
2018-07-20T06:16:11.136Z,98156.13
2018-07-20T06:18:39.959Z,98157.37
2018-07-20T06:21:08.787Z,98146.71
2018-07-20T06:23:37.940Z,98144.73
2018-07-20T06:26:07.124Z,98145.64
2018-07-20T06:28:36.186Z,98143.07
2018-07-20T06:31:05.035Z,98141.83
2018-07-20T06:33:33.767Z,98144.03
2018-07-20T06:36:02.375Z,98135.90
2018-07-20T06:38:31.234Z,98136.21
2018-07-20T06:40:59.996Z,98131.89
2018-07-20T06:43:28.658Z,98135.74
2018-07-20T06:45:57.259Z,98129.42
2018-07-20T06:48:26.325Z,98136.71
2018-07-20T06:50:55.336Z,98134.69
2018-07-20T06:53:24.565Z,98133.24
2018-07-20T06:55:53.475Z,98137.84
2018-07-20T06:58:22.210Z,98140.94
2018-07-20T07:00:53.293Z,98141.86
2018-07-20T07:03:25.925Z,98140.47
2018-07-20T07:05:55.026Z,98140.52
2018-07-20T07:08:25.079Z,98139.07
2018-07-20T07:10:53.664Z,98138.64
2018-07-20T07:13:28.674Z,98142.53
2018-07-20T07:16:00.612Z,98141.54
2018-07-20T07:18:40.353Z,98136.75
2018-07-20T07:21:13.182Z,98137.34
2018-07-20T07:23:49.429Z,98139.46
2018-07-20T07:26:23.564Z,98136.24
2018-07-20T07:29:02.417Z,98131.52
2018-07-20T07:31:36.380Z,98129.73
2018-07-20T07:34:08.807Z,98132.66
2018-07-20T07:36:39.631Z,98132.66
2018-07-20T07:39:13.453Z,98134.30
2018-07-20T07:41:46.849Z,98134.81
2018-07-20T07:44:23.881Z,98139.75
2018-07-20T07:46:55.431Z,98139.45
2018-07-20T07:49:28.327Z,98138.02
2018-07-20T07:52:02.150Z,98138.22
2018-07-20T07:54:37.583Z,98134.11
2018-07-20T07:57:15.737Z,98133.12
2018-07-20T08:00:14.984Z,98130.53
2018-07-20T08:03:10.630Z,98135.75
2018-07-20T08:05:41.103Z,98126.31
2018-07-20T08:08:09.653Z,98133.26
2018-07-20T08:10:38.504Z,98130.67
2018-07-20T08:13:07.294Z,98131.39
2018-07-20T08:15:36.039Z,98135.45
2018-07-20T08:18:04.755Z,98135.55
2018-07-20T08:20:33.629Z,98130.55
2018-07-20T08:23:02.479Z,98134.27
2018-07-20T08:25:31.021Z,98123.20
2018-07-20T08:27:59.747Z,98122.64
2018-07-20T08:30:28.604Z,98124.74
2018-07-20T08:32:57.710Z,98116.16
2018-07-20T08:35:26.426Z,98115.49
2018-07-20T08:37:54.856Z,98118.21
2018-07-20T08:40:23.543Z,98116.14
2018-07-20T08:42:52.153Z,98112.18
2018-07-20T08:45:20.741Z,98109.83
2018-07-20T08:47:49.440Z,98104.90
2018-07-20T08:50:18.032Z,98106.83
2018-07-20T08:52:46.797Z,98111.38
2018-07-20T08:55:15.440Z,98106.92
2018-07-20T08:57:44.011Z,98105.10
2018-07-20T09:00:12.703Z,98104.08
2018-07-20T09:02:41.293Z,98103.50
2018-07-20T09:05:09.957Z,98102.87
2018-07-20T09:07:38.634Z,98094.11
2018-07-20T09:10:07.244Z,98095.31
2018-07-20T09:12:35.855Z,98093.30
2018-07-20T09:15:04.780Z,98095.02
2018-07-20T09:17:33.374Z,98094.80
2018-07-20T09:20:01.923Z,98091.44
2018-07-20T09:22:30.610Z,98086.22
2018-07-20T09:24:59.264Z,98083.80
2018-07-20T09:27:28.097Z,98087.91
2018-07-20T09:29:56.646Z,98080.81
2018-07-20T09:32:25.221Z,98084.00
2018-07-20T09:34:53.995Z,98079.72
2018-07-20T09:37:22.571Z,98082.84
2018-07-20T09:39:51.131Z,98079.61
2018-07-20T09:42:19.818Z,98081.72
2018-07-20T09:44:48.487Z,98076.95
2018-07-20T09:47:17.033Z,98085.78
2018-07-20T09:49:45.669Z,98081.37
2018-07-20T09:52:14.395Z,98082.17
2018-07-20T09:54:43.110Z,98084.44
2018-07-20T09:57:11.839Z,98080.34
2018-07-20T09:59:40.457Z,98078.84
2018-07-20T10:02:09.022Z,98075.05
2018-07-20T10:04:37.761Z,98075.66
2018-07-20T10:07:06.320Z,98073.98
2018-07-20T10:09:36.176Z,98076.39
2018-07-20T10:12:04.858Z,98079.41
2018-07-20T10:14:33.349Z,98075.80
2018-07-20T10:17:01.994Z,98072.91
2018-07-20T10:19:30.642Z,98069.51
2018-07-20T10:21:59.328Z,98066.46
2018-07-20T10:24:27.856Z,98065.89
2018-07-20T10:26:56.539Z,98063.91
2018-07-20T10:29:28.533Z,98061.88
2018-07-20T10:32:33.090Z,98059.54
2018-07-20T10:35:02.709Z,98056.38
2018-07-20T10:37:31.284Z,98046.44
2018-07-20T10:39:59.962Z,98050.09
2018-07-20T10:42:28.507Z,98040.58
2018-07-20T10:44:57.055Z,98041.39
2018-07-20T10:47:25.690Z,98036.84
2018-07-20T10:49:54.396Z,98040.72
2018-07-20T10:52:22.995Z,98026.95
2018-07-20T10:54:51.648Z,98023.09
2018-07-20T10:57:20.480Z,98029.85
2018-07-20T10:59:49.289Z,98022.17
2018-07-20T11:02:19.169Z,98017.53
2018-07-20T11:04:47.798Z,98019.69
2018-07-20T11:07:16.479Z,98022.07
2018-07-20T11:09:45.185Z,98008.44
2018-07-20T11:12:13.740Z,98012.89
2018-07-20T11:14:42.352Z,98004.56
2018-07-20T11:17:10.910Z,98002.53
2018-07-20T11:19:39.667Z,98004.27
2018-07-20T11:22:08.874Z,98000.58
2018-07-20T11:24:37.546Z,98001.56
2018-07-20T11:27:06.178Z,97997.70
2018-07-20T11:29:34.715Z,97998.48
2018-07-20T11:32:03.331Z,97995.23
2018-07-20T11:34:32.037Z,97997.47
2018-07-20T11:37:00.596Z,97999.01
2018-07-20T11:39:29.123Z,98000.44
2018-07-20T11:41:57.912Z,97999.57
2018-07-20T11:44:26.517Z,98000.19
2018-07-20T11:46:55.066Z,97997.50
2018-07-20T11:49:23.765Z,97993.56
2018-07-20T11:51:52.332Z,97986.93
2018-07-20T11:54:20.938Z,97983.14
2018-07-20T11:56:49.587Z,97987.11
2018-07-20T11:59:18.268Z,97985.27
2018-07-20T12:01:46.862Z,97982.93
2018-07-20T12:04:15.489Z,97978.98
2018-07-20T12:06:44.060Z,97970.40
2018-07-20T12:09:13.258Z,97967.48
2018-07-20T12:11:42.054Z,97960.69
2018-07-20T12:14:10.754Z,97965.75
2018-07-20T12:16:39.575Z,97965.66
2018-07-20T12:19:08.165Z,97962.44
2018-07-20T12:21:36.807Z,97962.39
2018-07-20T12:24:05.484Z,97955.30
2018-07-20T12:26:34.105Z,97951.61
2018-07-20T12:29:02.722Z,97954.00
2018-07-20T12:31:31.249Z,97958.48
2018-07-20T12:33:59.783Z,97952.82
2018-07-20T12:36:28.267Z,97958.38
2018-07-20T12:38:56.789Z,97950.19
2018-07-20T12:41:25.399Z,97948.59
2018-07-20T12:43:56.180Z,97943.05
2018-07-20T12:46:25.866Z,97940.42
2018-07-20T12:48:54.333Z,97935.19
2018-07-20T12:51:22.909Z,97934.03
2018-07-20T12:53:51.749Z,97926.24
2018-07-20T12:56:20.410Z,97930.53
2018-07-20T12:58:49.180Z,97924.75
2018-07-20T13:01:17.720Z,97919.33
2018-07-20T13:03:46.446Z,97910.72
2018-07-20T13:06:15.026Z,97916.97
2018-07-20T13:08:43.660Z,97905.66
2018-07-20T13:11:12.362Z,97900.64
2018-07-20T13:13:41.066Z,97892.58
2018-07-20T13:16:09.695Z,97905.74
2018-07-20T13:18:38.271Z,97895.25
2018-07-20T13:21:07.101Z,97899.84
2018-07-20T13:23:35.824Z,97902.45
2018-07-20T13:26:04.578Z,97899.55
2018-07-20T13:28:33.590Z,97905.59
2018-07-20T13:31:02.219Z,97899.48
2018-07-20T13:33:30.933Z,97896.73
2018-07-20T13:35:59.726Z,97893.37
2018-07-20T13:38:28.579Z,97893.77
2018-07-20T13:40:57.259Z,97893.55
2018-07-20T13:43:25.974Z,97884.14
2018-07-20T13:45:54.601Z,97899.16
2018-07-20T13:48:23.285Z,97893.03
2018-07-20T13:50:51.955Z,97891.03
2018-07-20T13:53:20.759Z,97885.77
2018-07-20T13:55:49.395Z,97894.45
2018-07-20T13:58:18.027Z,97901.39
2018-07-20T14:00:46.872Z,97881.56
2018-07-20T14:03:15.412Z,97872.94
2018-07-20T14:05:43.980Z,97873.14
2018-07-20T14:08:16.310Z,97879.47
2018-07-20T14:10:45.153Z,97874.90
2018-07-20T14:13:14.911Z,97876.41
2018-07-20T14:15:43.705Z,97876.08
2018-07-20T14:18:12.564Z,97867.92
2018-07-20T14:20:41.624Z,97867.66
2018-07-20T14:23:10.515Z,97855.03
2018-07-20T14:25:39.120Z,97855.66
2018-07-20T14:28:08.158Z,97844.98
2018-07-20T14:30:36.774Z,97845.35
2018-07-20T14:33:05.689Z,97834.38
2018-07-20T14:35:34.428Z,97826.91
2018-07-20T14:38:04.783Z,97833.30
2018-07-20T14:40:33.582Z,97827.90
2018-07-20T14:43:02.263Z,97820.48
2018-07-20T14:45:30.829Z,97824.05
2018-07-20T14:47:59.545Z,97820.59
2018-07-20T14:50:28.300Z,97814.92
2018-07-20T14:52:56.951Z,97807.28
2018-07-20T14:55:25.798Z,97803.12
2018-07-20T14:57:54.786Z,97811.54
2018-07-20T15:00:23.489Z,97796.91
2018-07-20T15:02:52.142Z,97801.33
2018-07-20T15:05:20.794Z,97795.42
2018-07-20T15:07:49.548Z,97805.02
2018-07-20T15:10:18.311Z,97801.84
2018-07-20T15:12:47.189Z,97797.85
2018-07-20T15:15:15.898Z,97793.20
2018-07-20T15:17:44.479Z,97794.16
2018-07-20T15:20:13.198Z,97786.38
2018-07-20T15:22:41.805Z,97792.20
2018-07-20T15:25:10.703Z,97794.99
2018-07-20T15:27:39.444Z,97798.37
2018-07-20T15:30:08.292Z,97793.52
2018-07-20T15:32:37.145Z,97794.73
2018-07-20T15:35:05.909Z,97800.42
2018-07-20T15:37:34.595Z,97799.75
2018-07-20T15:40:03.188Z,97799.81
2018-07-20T15:42:32.015Z,97802.17
2018-07-20T15:45:00.614Z,97800.48
2018-07-20T15:47:29.346Z,97808.44
2018-07-20T15:49:57.872Z,97807.52
2018-07-20T15:54:55.306Z,97818.09
2018-07-20T15:57:23.966Z,97824.53
2018-07-20T15:59:52.731Z,97829.30
2018-07-20T16:02:21.218Z,97829.44
2018-07-20T16:04:49.805Z,97831.17
2018-07-20T16:07:18.577Z,97831.25
2018-07-20T16:09:47.148Z,97838.27
2018-07-20T16:12:15.715Z,97837.94
2018-07-20T16:14:44.295Z,97850.16
2018-07-20T16:17:13.093Z,97857.03
2018-07-20T16:19:42.584Z,97856.80
2018-07-20T16:22:11.141Z,97861.59
2018-07-20T16:24:39.791Z,97860.50
2018-07-20T16:27:08.691Z,97876.91
2018-07-20T16:29:37.316Z,97870.88
2018-07-20T16:32:06.323Z,97867.97
2018-07-20T16:34:34.984Z,97865.09
2018-07-20T16:37:03.848Z,97856.59
2018-07-20T16:39:32.786Z,97852.61
2018-07-20T16:42:01.636Z,97859.87
2018-07-20T16:44:30.502Z,97857.50
2018-07-20T16:46:59.278Z,97852.23
2018-07-20T16:49:27.887Z,97856.70
2018-07-20T16:51:56.741Z,97852.78
2018-07-20T16:54:25.363Z,97850.20
2018-07-20T16:56:54.139Z,97858.66
2018-07-20T16:59:22.709Z,97854.66
2018-07-20T17:01:51.505Z,97863.28
2018-07-20T17:04:20.258Z,97862.55
2018-07-20T17:06:48.984Z,97858.39
2018-07-20T17:09:17.723Z,97867.30
2018-07-20T17:11:46.409Z,97863.59
2018-07-20T17:14:14.982Z,97868.35
2018-07-20T17:16:43.761Z,97868.17
2018-07-20T17:19:12.468Z,97865.39
2018-07-20T17:21:41.148Z,97877.22
2018-07-20T17:24:10.404Z,97873.58
2018-07-20T17:26:39.421Z,97877.22
2018-07-20T17:29:08.255Z,97877.98
2018-07-20T17:31:36.835Z,97884.01
2018-07-20T17:34:05.440Z,97884.72
2018-07-20T17:36:35.266Z,97889.15
2018-07-20T17:39:04.818Z,97893.06
2018-07-20T17:41:33.801Z,97893.17
2018-07-20T17:44:02.497Z,97898.22
2018-07-20T17:46:31.377Z,97903.19
2018-07-20T17:49:00.246Z,97909.12
2018-07-20T17:51:28.900Z,97901.18
2018-07-20T17:53:57.585Z,97897.94
2018-07-20T17:56:26.519Z,97893.25
2018-07-20T17:58:55.367Z,97886.83
2018-07-20T18:01:24.134Z,97894.44
2018-07-20T18:03:52.736Z,97893.03
2018-07-20T18:06:21.442Z,97882.78
2018-07-20T18:08:50.190Z,97897.77
2018-07-20T18:11:18.907Z,97893.24
2018-07-20T18:13:47.737Z,97896.11
2018-07-20T18:16:16.471Z,97895.20
2018-07-20T18:18:45.333Z,97899.18
2018-07-20T18:21:14.044Z,97898.59
2018-07-20T18:23:42.779Z,97906.08
2018-07-20T18:26:11.476Z,97900.78
2018-07-20T18:28:40.024Z,97902.46
2018-07-20T18:31:08.704Z,97896.09
2018-07-20T18:33:37.522Z,97896.06
2018-07-20T18:36:06.265Z,97894.69
2018-07-20T18:38:35.173Z,97893.12
2018-07-20T18:41:03.802Z,97893.30
2018-07-20T18:43:32.574Z,97889.20
2018-07-20T18:46:01.396Z,97894.16
2018-07-20T18:48:30.249Z,97896.35
2018-07-20T18:50:59.255Z,97891.51
2018-07-20T18:53:28.222Z,97890.78
2018-07-20T18:55:57.039Z,97890.89
2018-07-20T18:58:25.721Z,97886.51
2018-07-20T19:00:54.533Z,97885.71
2018-07-20T19:03:23.290Z,97885.09
2018-07-20T19:05:52.029Z,97881.97
2018-07-20T19:08:20.723Z,97880.67
2018-07-20T19:10:49.419Z,97872.09
2018-07-20T19:13:18.742Z,97863.90
2018-07-20T19:15:47.357Z,97854.83
2018-07-20T19:18:16.245Z,97859.98
2018-07-20T19:20:45.110Z,97858.63
2018-07-20T19:23:17.695Z,97862.00
2018-07-20T19:25:46.604Z,97856.27
2018-07-20T19:28:15.407Z,97856.78
2018-07-20T19:30:44.031Z,97856.14
2018-07-20T19:33:12.779Z,97854.06
2018-07-20T19:35:41.482Z,97851.25
2018-07-20T19:38:10.214Z,97860.05
2018-07-20T19:40:39.942Z,97859.96
2018-07-20T19:44:37.872Z,97864.73
2018-07-20T19:47:06.654Z,97863.53
2018-07-20T19:49:35.536Z,97863.20
2018-07-20T19:52:04.349Z,97865.95
2018-07-20T19:54:33.185Z,97860.31
2018-07-20T19:57:01.991Z,97866.30
2018-07-20T19:59:30.764Z,97873.03
2018-07-20T20:01:59.635Z,97878.84
2018-07-20T20:04:28.515Z,97887.88
2018-07-20T20:06:57.201Z,97889.25
2018-07-20T20:09:25.857Z,97882.90
2018-07-20T20:11:54.449Z,97879.73
2018-07-20T20:14:23.112Z,97875.20
2018-07-20T20:16:51.918Z,97876.45
2018-07-20T20:19:20.703Z,97875.22
2018-07-20T20:21:49.487Z,97877.06
2018-07-20T20:24:18.253Z,97880.08
2018-07-20T20:26:47.050Z,97876.81
2018-07-20T20:29:16.741Z,97880.36
2018-07-20T20:31:45.376Z,97879.12
2018-07-20T20:34:14.133Z,97881.42
2018-07-20T20:36:42.697Z,97882.08
2018-07-20T20:39:12.844Z,97884.75
2018-07-20T20:41:41.714Z,97880.48
2018-07-20T20:44:10.881Z,97873.55
2018-07-20T20:46:40.016Z,97879.78
2018-07-20T20:49:08.825Z,97876.98
2018-07-20T20:51:37.388Z,97881.89
2018-07-20T20:54:06.821Z,97878.69
2018-07-20T20:56:35.419Z,97872.20
2018-07-20T20:59:04.165Z,97874.39
2018-07-20T21:01:32.883Z,97868.05
2018-07-20T21:04:01.652Z,97875.49
2018-07-20T21:06:30.249Z,97875.00
2018-07-20T21:08:58.973Z,97879.88
2018-07-20T21:11:27.587Z,97873.54
2018-07-20T21:13:56.243Z,97869.51
2018-07-20T21:16:24.872Z,97875.11
2018-07-20T21:18:53.469Z,97871.30
2018-07-20T21:21:22.023Z,97871.30
2018-07-20T21:23:50.737Z,97867.67
2018-07-20T21:26:19.466Z,97869.64
2018-07-20T21:28:48.100Z,97858.02
2018-07-20T21:31:16.996Z,97854.02
2018-07-20T21:33:45.884Z,97852.96
2018-07-20T21:36:14.619Z,97856.12
2018-07-20T21:38:43.528Z,97860.05
2018-07-20T21:41:12.421Z,97854.78
2018-07-20T21:43:41.140Z,97855.89
2018-07-20T21:46:09.941Z,97859.17
2018-07-20T21:48:38.549Z,97853.06
2018-07-20T21:51:07.227Z,97857.32
2018-07-20T21:53:35.916Z,97861.88
2018-07-20T21:56:04.751Z,97861.13
2018-07-20T21:58:33.411Z,97867.00
2018-07-20T22:01:03.272Z,97865.48
2018-07-20T22:03:31.878Z,97870.86
2018-07-20T22:06:00.508Z,97879.52
2018-07-20T22:08:29.231Z,97879.02
2018-07-20T22:10:57.865Z,97885.97
2018-07-20T22:13:26.473Z,97886.86
2018-07-20T22:15:55.050Z,97894.59
2018-07-20T22:18:23.653Z,97908.27
2018-07-20T22:20:52.169Z,97902.88
2018-07-20T22:23:20.800Z,97905.22
2018-07-20T22:25:49.709Z,97913.75
2018-07-20T22:28:18.325Z,97916.57
2018-07-20T22:30:46.965Z,97910.95
2018-07-20T22:33:15.695Z,97914.92
2018-07-20T22:35:44.468Z,97921.63
2018-07-20T22:38:12.992Z,97925.65
2018-07-20T22:40:41.856Z,97922.81
2018-07-20T22:43:10.478Z,97918.42
2018-07-20T22:45:39.154Z,97918.26
2018-07-20T22:48:07.977Z,97914.33
2018-07-20T22:50:36.563Z,97912.45
2018-07-20T22:53:05.361Z,97913.17
2018-07-20T22:55:33.928Z,97909.77
2018-07-20T22:58:02.515Z,97909.80
2018-07-20T23:00:31.238Z,97913.64
2018-07-20T23:03:00.011Z,97911.55
2018-07-20T23:05:28.756Z,97909.44
2018-07-20T23:07:57.309Z,97915.08
2018-07-20T23:10:25.837Z,97917.79
2018-07-20T23:12:54.741Z,97913.66
2018-07-20T23:15:23.522Z,97912.06
2018-07-20T23:17:52.317Z,97906.05
2018-07-20T23:20:21.093Z,97909.23
2018-07-20T23:22:49.788Z,97897.89
2018-07-20T23:25:18.579Z,97900.91
2018-07-20T23:27:47.292Z,97898.66
2018-07-20T23:30:16.007Z,97901.39
2018-07-20T23:32:44.602Z,97905.61
2018-07-20T23:35:13.139Z,97906.70
2018-07-20T23:37:43.558Z,97908.93
2018-07-20T23:40:12.290Z,97903.17
2018-07-20T23:42:40.921Z,97897.16
2018-07-20T23:45:09.712Z,97894.41
2018-07-20T23:47:38.611Z,97883.79
2018-07-20T23:50:07.353Z,97888.89
2018-07-20T23:52:38.585Z,97874.74
2018-07-20T23:55:07.666Z,97880.29
2018-07-20T23:57:36.380Z,97881.73
